sensor_id;sensor_type;location;lat;lon;timestamp;temperature;humidity
24374;DHT22;12498;50.880;12.096;2023-06-22T00:02:12;20.70;99.90
24374;DHT22;12498;50.880;12.096;2023-06-22T00:04:38;20.70;99.90
24374;DHT22;12498;50.880;12.096;2023-06-22T00:07:03;20.60;99.90
24374;DHT22;12498;50.880;12.096;2023-06-22T00:09:30;20.60;99.90
24374;DHT22;12498;50.880;12.096;2023-06-22T00:11:56;20.60;99.90
24374;DHT22;12498;50.880;12.096;2023-06-22T00:14:21;20.60;99.90
24374;DHT22;12498;50.880;12.096;2023-06-22T00:16:47;20.50;99.90
24374;DHT22;12498;50.880;12.096;2023-06-22T00:19:14;20.50;99.90
24374;DHT22;12498;50.880;12.096;2023-06-22T00:21:40;20.50;99.90
24374;DHT22;12498;50.880;12.096;2023-06-22T00:24:05;20.40;99.90
24374;DHT22;12498;50.880;12.096;2023-06-22T00:26:31;20.40;99.90
24374;DHT22;12498;50.880;12.096;2023-06-22T00:28:57;20.40;99.90
24374;DHT22;12498;50.880;12.096;2023-06-22T00:31:22;20.40;99.90
24374;DHT22;12498;50.880;12.096;2023-06-22T00:33:48;20.30;99.90
24374;DHT22;12498;50.880;12.096;2023-06-22T00:36:16;20.30;99.90
24374;DHT22;12498;50.880;12.096;2023-06-22T00:38:43;20.30;99.90
24374;DHT22;12498;50.880;12.096;2023-06-22T00:41:08;20.30;99.90
24374;DHT22;12498;50.880;12.096;2023-06-22T00:43:34;20.30;99.90
24374;DHT22;12498;50.880;12.096;2023-06-22T00:45:59;20.30;99.90
24374;DHT22;12498;50.880;12.096;2023-06-22T00:48:25;20.20;99.90
24374;DHT22;12498;50.880;12.096;2023-06-22T00:50:51;20.20;99.90
24374;DHT22;12498;50.880;12.096;2023-06-22T00:53:19;20.20;99.90
24374;DHT22;12498;50.880;12.096;2023-06-22T00:55:44;20.20;99.90
24374;DHT22;12498;50.880;12.096;2023-06-22T00:58:16;20.20;99.90
24374;DHT22;12498;50.880;12.096;2023-06-22T01:00:42;20.20;99.90
24374;DHT22;12498;50.880;12.096;2023-06-22T01:03:08;20.20;99.90
24374;DHT22;12498;50.880;12.096;2023-06-22T01:05:34;20.20;99.90
24374;DHT22;12498;50.880;12.096;2023-06-22T01:15:49;20.10;99.90
24374;DHT22;12498;50.880;12.096;2023-06-22T01:18:17;20.10;99.90
24374;DHT22;12498;50.880;12.096;2023-06-22T01:20:42;20.10;99.90
24374;DHT22;12498;50.880;12.096;2023-06-22T01:30:41;20.00;99.90
24374;DHT22;12498;50.880;12.096;2023-06-22T01:33:07;20.00;99.90
24374;DHT22;12498;50.880;12.096;2023-06-22T01:35:34;19.90;99.90
24374;DHT22;12498;50.880;12.096;2023-06-22T01:38:00;19.90;99.90
24374;DHT22;12498;50.880;12.096;2023-06-22T01:40:25;19.80;99.90
24374;DHT22;12498;50.880;12.096;2023-06-22T01:42:51;19.80;99.90
24374;DHT22;12498;50.880;12.096;2023-06-22T01:45:17;19.80;99.90
24374;DHT22;12498;50.880;12.096;2023-06-22T01:47:43;19.80;99.90
24374;DHT22;12498;50.880;12.096;2023-06-22T01:50:09;19.80;99.90
24374;DHT22;12498;50.880;12.096;2023-06-22T01:52:35;19.70;99.90
24374;DHT22;12498;50.880;12.096;2023-06-22T01:55:00;19.70;99.90
24374;DHT22;12498;50.880;12.096;2023-06-22T01:57:26;19.70;99.90
24374;DHT22;12498;50.880;12.096;2023-06-22T02:00:02;19.60;99.90
24374;DHT22;12498;50.880;12.096;2023-06-22T02:03:11;19.60;99.90
24374;DHT22;12498;50.880;12.096;2023-06-22T02:05:17;19.60;99.90
24374;DHT22;12498;50.880;12.096;2023-06-22T02:07:49;19.60;99.90
24374;DHT22;12498;50.880;12.096;2023-06-22T02:10:18;19.50;99.90
24374;DHT22;12498;50.880;12.096;2023-06-22T02:12:44;19.50;99.90
24374;DHT22;12498;50.880;12.096;2023-06-22T02:15:10;19.50;99.90
24374;DHT22;12498;50.880;12.096;2023-06-22T02:17:38;19.50;99.90
24374;DHT22;12498;50.880;12.096;2023-06-22T02:20:03;19.50;99.90
24374;DHT22;12498;50.880;12.096;2023-06-22T02:22:31;19.50;99.90
24374;DHT22;12498;50.880;12.096;2023-06-22T02:24:56;19.50;99.90
24374;DHT22;12498;50.880;12.096;2023-06-22T02:27:22;19.40;99.90
24374;DHT22;12498;50.880;12.096;2023-06-22T02:29:47;19.40;99.90
24374;DHT22;12498;50.880;12.096;2023-06-22T02:32:13;19.40;99.90
24374;DHT22;12498;50.880;12.096;2023-06-22T02:34:38;19.40;99.90
24374;DHT22;12498;50.880;12.096;2023-06-22T02:37:04;19.40;99.90
24374;DHT22;12498;50.880;12.096;2023-06-22T02:39:30;19.30;99.90
24374;DHT22;12498;50.880;12.096;2023-06-22T02:41:56;19.40;99.90
24374;DHT22;12498;50.880;12.096;2023-06-22T02:44:21;19.30;99.90
24374;DHT22;12498;50.880;12.096;2023-06-22T02:46:47;19.30;99.90
24374;DHT22;12498;50.880;12.096;2023-06-22T02:49:13;19.30;99.90
24374;DHT22;12498;50.880;12.096;2023-06-22T02:51:39;19.30;99.90
24374;DHT22;12498;50.880;12.096;2023-06-22T02:54:05;19.30;99.90
24374;DHT22;12498;50.880;12.096;2023-06-22T02:56:30;19.30;99.90
24374;DHT22;12498;50.880;12.096;2023-06-22T02:58:56;19.40;99.90
24374;DHT22;12498;50.880;12.096;2023-06-22T03:01:26;19.30;99.90
24374;DHT22;12498;50.880;12.096;2023-06-22T03:03:53;19.30;99.90
24374;DHT22;12498;50.880;12.096;2023-06-22T03:06:18;19.40;99.90
24374;DHT22;12498;50.880;12.096;2023-06-22T03:08:48;19.40;99.90
24374;DHT22;12498;50.880;12.096;2023-06-22T03:11:14;19.30;99.90
24374;DHT22;12498;50.880;12.096;2023-06-22T03:13:39;19.30;99.90
24374;DHT22;12498;50.880;12.096;2023-06-22T03:16:05;19.30;99.90
24374;DHT22;12498;50.880;12.096;2023-06-22T03:18:30;19.20;99.90
24374;DHT22;12498;50.880;12.096;2023-06-22T03:20:56;19.10;99.90
24374;DHT22;12498;50.880;12.096;2023-06-22T03:23:21;19.10;99.90
24374;DHT22;12498;50.880;12.096;2023-06-22T03:25:47;19.00;99.90
24374;DHT22;12498;50.880;12.096;2023-06-22T03:28:12;19.00;99.90
24374;DHT22;12498;50.880;12.096;2023-06-22T03:30:38;19.10;99.90
24374;DHT22;12498;50.880;12.096;2023-06-22T03:33:03;19.10;99.90
24374;DHT22;12498;50.880;12.096;2023-06-22T03:35:29;19.10;99.90
24374;DHT22;12498;50.880;12.096;2023-06-22T03:37:54;19.00;99.90
24374;DHT22;12498;50.880;12.096;2023-06-22T03:40:20;18.90;99.90
24374;DHT22;12498;50.880;12.096;2023-06-22T03:42:46;18.80;99.90
24374;DHT22;12498;50.880;12.096;2023-06-22T03:45:11;18.70;99.90
24374;DHT22;12498;50.880;12.096;2023-06-22T03:47:37;18.60;99.90
24374;DHT22;12498;50.880;12.096;2023-06-22T03:50:02;18.60;99.90
24374;DHT22;12498;50.880;12.096;2023-06-22T03:52:29;18.70;99.90
24374;DHT22;12498;50.880;12.096;2023-06-22T03:54:54;18.60;99.90
24374;DHT22;12498;50.880;12.096;2023-06-22T03:57:20;18.60;99.90
24374;DHT22;12498;50.880;12.096;2023-06-22T03:59:45;18.70;99.90
24374;DHT22;12498;50.880;12.096;2023-06-22T04:02:11;18.70;99.90
24374;DHT22;12498;50.880;12.096;2023-06-22T04:04:36;18.70;99.90
24374;DHT22;12498;50.880;12.096;2023-06-22T04:07:04;18.70;99.90
24374;DHT22;12498;50.880;12.096;2023-06-22T04:09:29;18.80;99.90
24374;DHT22;12498;50.880;12.096;2023-06-22T04:11:55;18.80;99.90
24374;DHT22;12498;50.880;12.096;2023-06-22T04:14:20;18.90;99.90
24374;DHT22;12498;50.880;12.096;2023-06-22T04:16:46;18.90;99.90
24374;DHT22;12498;50.880;12.096;2023-06-22T04:19:11;19.20;99.90
24374;DHT22;12498;50.880;12.096;2023-06-22T04:21:44;19.40;99.90
24374;DHT22;12498;50.880;12.096;2023-06-22T04:24:10;19.50;99.90
24374;DHT22;12498;50.880;12.096;2023-06-22T04:26:36;19.70;99.90
24374;DHT22;12498;50.880;12.096;2023-06-22T04:29:05;19.70;99.90
24374;DHT22;12498;50.880;12.096;2023-06-22T04:31:34;19.80;99.90
24374;DHT22;12498;50.880;12.096;2023-06-22T04:34:05;19.90;99.90
24374;DHT22;12498;50.880;12.096;2023-06-22T04:36:38;20.00;99.90
24374;DHT22;12498;50.880;12.096;2023-06-22T04:39:04;20.20;99.90
24374;DHT22;12498;50.880;12.096;2023-06-22T04:41:30;20.20;99.90
24374;DHT22;12498;50.880;12.096;2023-06-22T04:44:10;20.30;99.90
24374;DHT22;12498;50.880;12.096;2023-06-22T04:46:36;20.40;99.90
24374;DHT22;12498;50.880;12.096;2023-06-22T04:49:09;20.50;99.90
24374;DHT22;12498;50.880;12.096;2023-06-22T04:51:39;20.60;99.90
24374;DHT22;12498;50.880;12.096;2023-06-22T04:54:04;20.60;99.90
24374;DHT22;12498;50.880;12.096;2023-06-22T04:56:31;20.70;99.90
24374;DHT22;12498;50.880;12.096;2023-06-22T04:58:56;20.80;99.90
24374;DHT22;12498;50.880;12.096;2023-06-22T05:01:22;20.90;99.90
24374;DHT22;12498;50.880;12.096;2023-06-22T05:03:48;20.80;99.90
24374;DHT22;12498;50.880;12.096;2023-06-22T05:06:13;20.90;99.90
24374;DHT22;12498;50.880;12.096;2023-06-22T05:08:40;21.00;99.90
24374;DHT22;12498;50.880;12.096;2023-06-22T05:11:05;20.90;99.90
24374;DHT22;12498;50.880;12.096;2023-06-22T05:13:31;21.00;99.90
24374;DHT22;12498;50.880;12.096;2023-06-22T05:15:56;21.00;99.90
24374;DHT22;12498;50.880;12.096;2023-06-22T05:18:27;21.00;99.90
24374;DHT22;12498;50.880;12.096;2023-06-22T05:20:52;21.00;99.90
24374;DHT22;12498;50.880;12.096;2023-06-22T05:23:19;21.00;99.90
24374;DHT22;12498;50.880;12.096;2023-06-22T05:25:44;21.00;99.90
24374;DHT22;12498;50.880;12.096;2023-06-22T05:28:09;21.00;99.90
24374;DHT22;12498;50.880;12.096;2023-06-22T05:30:36;21.10;99.90
24374;DHT22;12498;50.880;12.096;2023-06-22T05:33:02;21.00;99.90
24374;DHT22;12498;50.880;12.096;2023-06-22T05:35:27;20.90;99.90
24374;DHT22;12498;50.880;12.096;2023-06-22T05:37:53;21.00;99.90
24374;DHT22;12498;50.880;12.096;2023-06-22T05:40:19;21.10;99.90
24374;DHT22;12498;50.880;12.096;2023-06-22T05:42:44;21.20;99.90
24374;DHT22;12498;50.880;12.096;2023-06-22T05:45:10;21.30;99.90
24374;DHT22;12498;50.880;12.096;2023-06-22T05:47:35;21.40;99.90
24374;DHT22;12498;50.880;12.096;2023-06-22T05:50:01;21.40;99.90
24374;DHT22;12498;50.880;12.096;2023-06-22T05:52:26;21.50;99.90
24374;DHT22;12498;50.880;12.096;2023-06-22T05:54:52;21.60;99.90
24374;DHT22;12498;50.880;12.096;2023-06-22T05:57:17;21.60;99.90
24374;DHT22;12498;50.880;12.096;2023-06-22T05:59:43;21.60;99.90
24374;DHT22;12498;50.880;12.096;2023-06-22T06:02:08;21.60;99.90
24374;DHT22;12498;50.880;12.096;2023-06-22T06:04:33;21.50;99.90
24374;DHT22;12498;50.880;12.096;2023-06-22T06:07:00;21.50;99.90
24374;DHT22;12498;50.880;12.096;2023-06-22T06:09:26;21.50;99.90
24374;DHT22;12498;50.880;12.096;2023-06-22T06:11:51;21.50;99.90
24374;DHT22;12498;50.880;12.096;2023-06-22T06:14:17;21.40;99.90
24374;DHT22;12498;50.880;12.096;2023-06-22T06:16:43;21.40;99.90
24374;DHT22;12498;50.880;12.096;2023-06-22T06:19:08;21.40;99.90
24374;DHT22;12498;50.880;12.096;2023-06-22T06:21:34;21.50;99.90
24374;DHT22;12498;50.880;12.096;2023-06-22T06:23:59;21.50;99.90
24374;DHT22;12498;50.880;12.096;2023-06-22T06:26:27;21.70;99.90
24374;DHT22;12498;50.880;12.096;2023-06-22T06:28:59;21.80;99.90
24374;DHT22;12498;50.880;12.096;2023-06-22T06:31:25;21.90;99.90
24374;DHT22;12498;50.880;12.096;2023-06-22T06:33:54;22.00;99.90
24374;DHT22;12498;50.880;12.096;2023-06-22T06:36:19;22.00;99.90
24374;DHT22;12498;50.880;12.096;2023-06-22T06:38:45;22.10;99.90
24374;DHT22;12498;50.880;12.096;2023-06-22T06:41:15;22.20;99.90
24374;DHT22;12498;50.880;12.096;2023-06-22T06:43:41;22.30;99.90
24374;DHT22;12498;50.880;12.096;2023-06-22T06:46:08;22.50;99.90
24374;DHT22;12498;50.880;12.096;2023-06-22T06:48:34;22.70;99.90
24374;DHT22;12498;50.880;12.096;2023-06-22T06:50:59;23.00;99.90
24374;DHT22;12498;50.880;12.096;2023-06-22T06:53:25;23.20;99.90
24374;DHT22;12498;50.880;12.096;2023-06-22T06:55:50;23.40;99.90
24374;DHT22;12498;50.880;12.096;2023-06-22T06:58:16;23.50;99.90
24374;DHT22;12498;50.880;12.096;2023-06-22T07:00:41;23.60;99.90
24374;DHT22;12498;50.880;12.096;2023-06-22T07:03:08;23.70;99.90
24374;DHT22;12498;50.880;12.096;2023-06-22T07:05:34;23.70;99.90
24374;DHT22;12498;50.880;12.096;2023-06-22T07:08:00;23.80;99.90
24374;DHT22;12498;50.880;12.096;2023-06-22T07:10:26;23.80;99.90
24374;DHT22;12498;50.880;12.096;2023-06-22T07:12:51;23.90;99.90
24374;DHT22;12498;50.880;12.096;2023-06-22T07:15:17;23.90;99.90
24374;DHT22;12498;50.880;12.096;2023-06-22T07:17:42;23.90;99.90
24374;DHT22;12498;50.880;12.096;2023-06-22T07:20:08;23.90;99.90
24374;DHT22;12498;50.880;12.096;2023-06-22T07:22:36;23.90;99.90
24374;DHT22;12498;50.880;12.096;2023-06-22T07:25:01;23.90;99.90
24374;DHT22;12498;50.880;12.096;2023-06-22T07:27:30;23.90;99.90
24374;DHT22;12498;50.880;12.096;2023-06-22T07:30:01;24.00;99.90
24374;DHT22;12498;50.880;12.096;2023-06-22T07:32:26;24.10;99.90
24374;DHT22;12498;50.880;12.096;2023-06-22T07:34:53;24.10;99.90
24374;DHT22;12498;50.880;12.096;2023-06-22T07:37:19;24.20;99.90
24374;DHT22;12498;50.880;12.096;2023-06-22T07:39:44;24.20;99.90
24374;DHT22;12498;50.880;12.096;2023-06-22T07:42:10;24.20;99.90
24374;DHT22;12498;50.880;12.096;2023-06-22T07:44:35;24.30;99.90
24374;DHT22;12498;50.880;12.096;2023-06-22T07:47:01;24.40;99.90
24374;DHT22;12498;50.880;12.096;2023-06-22T07:49:27;24.50;94.10
24374;DHT22;12498;50.880;12.096;2023-06-22T07:51:53;24.50;75.70
24374;DHT22;12498;50.880;12.096;2023-06-22T07:54:18;24.60;80.90
24374;DHT22;12498;50.880;12.096;2023-06-22T07:56:45;24.60;81.20
24374;DHT22;12498;50.880;12.096;2023-06-22T07:59:11;24.60;55.80
24374;DHT22;12498;50.880;12.096;2023-06-22T08:01:36;24.60;55.90
24374;DHT22;12498;50.880;12.096;2023-06-22T08:04:02;24.70;60.80
24374;DHT22;12498;50.880;12.096;2023-06-22T08:06:29;24.80;48.90
24374;DHT22;12498;50.880;12.096;2023-06-22T08:08:54;24.80;1.00
24374;DHT22;12498;50.880;12.096;2023-06-22T08:11:22;24.90;1.00
24374;DHT22;12498;50.880;12.096;2023-06-22T08:13:49;25.00;99.90
24374;DHT22;12498;50.880;12.096;2023-06-22T08:16:14;25.00;1.00
24374;DHT22;12498;50.880;12.096;2023-06-22T08:18:40;25.00;23.60
24374;DHT22;12498;50.880;12.096;2023-06-22T08:21:05;25.10;1.00
24374;DHT22;12498;50.880;12.096;2023-06-22T08:23:31;25.20;1.00
24374;DHT22;12498;50.880;12.096;2023-06-22T08:25:56;25.30;1.00
24374;DHT22;12498;50.880;12.096;2023-06-22T08:28:22;25.40;26.60
24374;DHT22;12498;50.880;12.096;2023-06-22T08:30:48;25.50;99.90
24374;DHT22;12498;50.880;12.096;2023-06-22T08:33:13;25.60;99.90
24374;DHT22;12498;50.880;12.096;2023-06-22T08:35:39;25.70;1.00
24374;DHT22;12498;50.880;12.096;2023-06-22T08:38:04;25.80;1.00
24374;DHT22;12498;50.880;12.096;2023-06-22T08:40:30;25.90;1.00
24374;DHT22;12498;50.880;12.096;2023-06-22T08:42:55;25.90;1.00
24374;DHT22;12498;50.880;12.096;2023-06-22T08:45:21;26.00;1.00
24374;DHT22;12498;50.880;12.096;2023-06-22T08:47:47;26.10;99.90
24374;DHT22;12498;50.880;12.096;2023-06-22T08:50:12;26.10;99.90
24374;DHT22;12498;50.880;12.096;2023-06-22T08:52:39;26.20;99.90
24374;DHT22;12498;50.880;12.096;2023-06-22T08:55:07;26.30;60.10
24374;DHT22;12498;50.880;12.096;2023-06-22T08:57:32;26.30;1.00
24374;DHT22;12498;50.880;12.096;2023-06-22T08:59:58;26.40;1.00
24374;DHT22;12498;50.880;12.096;2023-06-22T09:02:27;26.40;1.00
24374;DHT22;12498;50.880;12.096;2023-06-22T09:04:57;26.50;1.00
24374;DHT22;12498;50.880;12.096;2023-06-22T09:07:23;26.50;99.90
24374;DHT22;12498;50.880;12.096;2023-06-22T09:09:50;26.60;1.00
24374;DHT22;12498;50.880;12.096;2023-06-22T09:12:16;26.70;1.00
24374;DHT22;12498;50.880;12.096;2023-06-22T09:14:41;26.80;99.90
24374;DHT22;12498;50.880;12.096;2023-06-22T09:17:07;27.00;99.90
24374;DHT22;12498;50.880;12.096;2023-06-22T09:19:32;27.10;99.90
24374;DHT22;12498;50.880;12.096;2023-06-22T09:21:58;27.20;61.40
24374;DHT22;12498;50.880;12.096;2023-06-22T09:24:24;27.30;21.70
24374;DHT22;12498;50.880;12.096;2023-06-22T09:26:49;27.50;1.00
24374;DHT22;12498;50.880;12.096;2023-06-22T09:29:15;27.60;1.00
24374;DHT22;12498;50.880;12.096;2023-06-22T09:31:41;27.80;1.00
24374;DHT22;12498;50.880;12.096;2023-06-22T09:34:06;28.00;99.90
24374;DHT22;12498;50.880;12.096;2023-06-22T09:36:32;28.30;99.90
24374;DHT22;12498;50.880;12.096;2023-06-22T09:38:57;28.40;99.90
24374;DHT22;12498;50.880;12.096;2023-06-22T09:41:24;28.70;99.90
24374;DHT22;12498;50.880;12.096;2023-06-22T09:43:49;28.80;4.80
24374;DHT22;12498;50.880;12.096;2023-06-22T09:46:15;29.10;1.00
24374;DHT22;12498;50.880;12.096;2023-06-22T09:48:40;29.10;1.00
24374;DHT22;12498;50.880;12.096;2023-06-22T09:51:06;29.30;1.00
24374;DHT22;12498;50.880;12.096;2023-06-22T09:53:32;29.30;99.90
24374;DHT22;12498;50.880;12.096;2023-06-22T09:55:57;29.40;99.90
24374;DHT22;12498;50.880;12.096;2023-06-22T09:58:23;29.30;1.00
24374;DHT22;12498;50.880;12.096;2023-06-22T10:00:48;29.40;1.00
24374;DHT22;12498;50.880;12.096;2023-06-22T10:03:14;29.60;99.90
24374;DHT22;12498;50.880;12.096;2023-06-22T10:05:39;29.90;99.90
24374;DHT22;12498;50.880;12.096;2023-06-22T10:08:05;30.10;99.90
24374;DHT22;12498;50.880;12.096;2023-06-22T10:10:33;30.40;99.90
24374;DHT22;12498;50.880;12.096;2023-06-22T10:13:02;31.00;99.90
24374;DHT22;12498;50.880;12.096;2023-06-22T10:15:28;31.30;99.90
24374;DHT22;12498;50.880;12.096;2023-06-22T10:17:53;31.70;99.90
24374;DHT22;12498;50.880;12.096;2023-06-22T10:20:19;32.50;99.90
24374;DHT22;12498;50.880;12.096;2023-06-22T10:22:46;33.30;49.60
24374;DHT22;12498;50.880;12.096;2023-06-22T10:25:12;34.20;1.00
24374;DHT22;12498;50.880;12.096;2023-06-22T10:27:38;34.70;1.00
24374;DHT22;12498;50.880;12.096;2023-06-22T10:30:09;34.90;1.00
24374;DHT22;12498;50.880;12.096;2023-06-22T10:32:37;35.10;1.00
24374;DHT22;12498;50.880;12.096;2023-06-22T10:35:03;34.80;1.00
24374;DHT22;12498;50.880;12.096;2023-06-22T10:37:29;34.20;1.00
24374;DHT22;12498;50.880;12.096;2023-06-22T10:39:54;34.60;1.00
24374;DHT22;12498;50.880;12.096;2023-06-22T10:42:20;34.80;1.00
24374;DHT22;12498;50.880;12.096;2023-06-22T10:44:46;35.20;1.00
24374;DHT22;12498;50.880;12.096;2023-06-22T10:47:11;35.40;1.00
24374;DHT22;12498;50.880;12.096;2023-06-22T10:49:37;35.90;1.00
24374;DHT22;12498;50.880;12.096;2023-06-22T10:52:03;36.50;1.00
24374;DHT22;12498;50.880;12.096;2023-06-22T10:54:29;37.30;1.00
24374;DHT22;12498;50.880;12.096;2023-06-22T10:56:54;37.80;1.00
24374;DHT22;12498;50.880;12.096;2023-06-22T10:59:20;38.10;1.00
24374;DHT22;12498;50.880;12.096;2023-06-22T11:01:46;38.10;1.00
24374;DHT22;12498;50.880;12.096;2023-06-22T11:04:12;38.50;1.00
24374;DHT22;12498;50.880;12.096;2023-06-22T11:06:37;38.90;1.00
24374;DHT22;12498;50.880;12.096;2023-06-22T11:09:03;38.50;1.00
24374;DHT22;12498;50.880;12.096;2023-06-22T11:11:29;38.60;1.00
24374;DHT22;12498;50.880;12.096;2023-06-22T11:13:55;39.10;1.00
24374;DHT22;12498;50.880;12.096;2023-06-22T11:16:20;39.30;1.00
24374;DHT22;12498;50.880;12.096;2023-06-22T11:18:46;39.20;1.00
24374;DHT22;12498;50.880;12.096;2023-06-22T11:21:11;38.30;1.00
24374;DHT22;12498;50.880;12.096;2023-06-22T11:23:36;37.90;1.00
24374;DHT22;12498;50.880;12.096;2023-06-22T11:26:02;37.90;1.00
24374;DHT22;12498;50.880;12.096;2023-06-22T11:28:28;37.90;1.00
24374;DHT22;12498;50.880;12.096;2023-06-22T11:30:53;36.90;1.00
24374;DHT22;12498;50.880;12.096;2023-06-22T11:33:19;37.20;1.00
24374;DHT22;12498;50.880;12.096;2023-06-22T11:35:44;37.70;1.00
24374;DHT22;12498;50.880;12.096;2023-06-22T11:38:10;38.70;1.00
24374;DHT22;12498;50.880;12.096;2023-06-22T11:40:35;39.40;1.00
24374;DHT22;12498;50.880;12.096;2023-06-22T11:43:01;39.50;1.00
24374;DHT22;12498;50.880;12.096;2023-06-22T11:45:26;39.60;1.00
24374;DHT22;12498;50.880;12.096;2023-06-22T11:47:52;39.70;1.00
24374;DHT22;12498;50.880;12.096;2023-06-22T11:50:17;39.60;1.00
24374;DHT22;12498;50.880;12.096;2023-06-22T11:52:43;39.20;1.00
24374;DHT22;12498;50.880;12.096;2023-06-22T11:55:08;39.10;1.00
24374;DHT22;12498;50.880;12.096;2023-06-22T11:57:35;39.80;1.00
24374;DHT22;12498;50.880;12.096;2023-06-22T12:00:01;40.10;1.00
24374;DHT22;12498;50.880;12.096;2023-06-22T12:02:31;40.50;1.00
24374;DHT22;12498;50.880;12.096;2023-06-22T12:04:57;40.70;1.00
24374;DHT22;12498;50.880;12.096;2023-06-22T12:07:23;40.70;1.00
24374;DHT22;12498;50.880;12.096;2023-06-22T12:09:49;40.70;1.00
24374;DHT22;12498;50.880;12.096;2023-06-22T12:12:15;40.30;1.00
24374;DHT22;12498;50.880;12.096;2023-06-22T12:14:40;39.80;1.00
24374;DHT22;12498;50.880;12.096;2023-06-22T12:17:06;39.10;1.00
24374;DHT22;12498;50.880;12.096;2023-06-22T12:19:31;39.50;1.00
24374;DHT22;12498;50.880;12.096;2023-06-22T12:21:57;39.70;1.00
24374;DHT22;12498;50.880;12.096;2023-06-22T12:24:22;40.30;1.00
24374;DHT22;12498;50.880;12.096;2023-06-22T12:26:48;40.50;1.00
24374;DHT22;12498;50.880;12.096;2023-06-22T12:29:14;40.70;1.00
24374;DHT22;12498;50.880;12.096;2023-06-22T12:31:39;41.00;1.00
24374;DHT22;12498;50.880;12.096;2023-06-22T12:34:05;40.90;1.00
24374;DHT22;12498;50.880;12.096;2023-06-22T12:36:30;41.00;1.00
24374;DHT22;12498;50.880;12.096;2023-06-22T12:38:56;41.00;1.00
24374;DHT22;12498;50.880;12.096;2023-06-22T12:41:21;40.80;1.00
24374;DHT22;12498;50.880;12.096;2023-06-22T12:43:47;40.90;1.00
24374;DHT22;12498;50.880;12.096;2023-06-22T12:46:13;41.00;99.90
24374;DHT22;12498;50.880;12.096;2023-06-22T12:51:07;41.60;99.90
24374;DHT22;12498;50.880;12.096;2023-06-22T12:53:34;41.70;1.00
24374;DHT22;12498;50.880;12.096;2023-06-22T12:55:59;42.10;99.90
24374;DHT22;12498;50.880;12.096;2023-06-22T12:58:25;42.50;99.90
24374;DHT22;12498;50.880;12.096;2023-06-22T13:00:50;42.20;99.90
24374;DHT22;12498;50.880;12.096;2023-06-22T13:03:16;41.80;99.90
24374;DHT22;12498;50.880;12.096;2023-06-22T13:05:41;41.50;99.90
24374;DHT22;12498;50.880;12.096;2023-06-22T13:08:07;41.40;99.90
24374;DHT22;12498;50.880;12.096;2023-06-22T13:10:33;41.20;99.90
24374;DHT22;12498;50.880;12.096;2023-06-22T13:12:59;40.70;99.90
24374;DHT22;12498;50.880;12.096;2023-06-22T13:15:26;40.40;99.90
24374;DHT22;12498;50.880;12.096;2023-06-22T13:17:52;39.90;99.90
24374;DHT22;12498;50.880;12.096;2023-06-22T13:20:18;39.20;99.90
24374;DHT22;12498;50.880;12.096;2023-06-22T13:22:43;38.70;99.90
24374;DHT22;12498;50.880;12.096;2023-06-22T13:25:09;38.00;99.90
24374;DHT22;12498;50.880;12.096;2023-06-22T13:27:40;37.70;99.90
24374;DHT22;12498;50.880;12.096;2023-06-22T13:30:06;37.20;99.90
24374;DHT22;12498;50.880;12.096;2023-06-22T13:32:31;36.70;99.90
24374;DHT22;12498;50.880;12.096;2023-06-22T13:34:57;36.20;1.00
24374;DHT22;12498;50.880;12.096;2023-06-22T13:37:22;36.10;1.00
24374;DHT22;12498;50.880;12.096;2023-06-22T13:39:48;35.70;1.00
24374;DHT22;12498;50.880;12.096;2023-06-22T13:42:14;35.30;1.00
24374;DHT22;12498;50.880;12.096;2023-06-22T13:44:39;35.00;1.00
24374;DHT22;12498;50.880;12.096;2023-06-22T13:47:05;34.70;1.00
24374;DHT22;12498;50.880;12.096;2023-06-22T13:49:31;34.70;1.00
24374;DHT22;12498;50.880;12.096;2023-06-22T13:51:56;34.80;1.00
24374;DHT22;12498;50.880;12.096;2023-06-22T13:54:22;35.20;1.00
24374;DHT22;12498;50.880;12.096;2023-06-22T13:56:47;35.60;1.00
24374;DHT22;12498;50.880;12.096;2023-06-22T13:59:13;35.40;1.00
24374;DHT22;12498;50.880;12.096;2023-06-22T14:01:38;34.90;1.00
24374;DHT22;12498;50.880;12.096;2023-06-22T14:04:05;34.40;1.00
24374;DHT22;12498;50.880;12.096;2023-06-22T14:06:31;34.10;1.00
24374;DHT22;12498;50.880;12.096;2023-06-22T14:08:56;33.80;1.00
24374;DHT22;12498;50.880;12.096;2023-06-22T14:11:22;33.50;1.00
24374;DHT22;12498;50.880;12.096;2023-06-22T14:13:47;33.30;1.00
24374;DHT22;12498;50.880;12.096;2023-06-22T14:16:13;33.10;1.00
24374;DHT22;12498;50.880;12.096;2023-06-22T14:18:38;32.70;1.00
24374;DHT22;12498;50.880;12.096;2023-06-22T14:21:04;32.90;1.00
24374;DHT22;12498;50.880;12.096;2023-06-22T14:23:29;33.20;1.00
24374;DHT22;12498;50.880;12.096;2023-06-22T14:25:55;33.60;1.00
24374;DHT22;12498;50.880;12.096;2023-06-22T14:28:20;33.80;1.00
24374;DHT22;12498;50.880;12.096;2023-06-22T14:30:46;34.00;1.00
24374;DHT22;12498;50.880;12.096;2023-06-22T14:33:12;34.40;1.00
24374;DHT22;12498;50.880;12.096;2023-06-22T14:35:37;34.90;1.00
24374;DHT22;12498;50.880;12.096;2023-06-22T14:38:03;35.20;1.00
24374;DHT22;12498;50.880;12.096;2023-06-22T14:40:28;35.40;1.00
24374;DHT22;12498;50.880;12.096;2023-06-22T14:42:54;35.30;1.00
24374;DHT22;12498;50.880;12.096;2023-06-22T14:45:22;35.40;1.00
24374;DHT22;12498;50.880;12.096;2023-06-22T14:47:47;35.40;1.00
24374;DHT22;12498;50.880;12.096;2023-06-22T14:50:13;35.50;1.00
24374;DHT22;12498;50.880;12.096;2023-06-22T14:52:38;35.30;1.00
24374;DHT22;12498;50.880;12.096;2023-06-22T14:55:04;35.20;1.00
24374;DHT22;12498;50.880;12.096;2023-06-22T14:57:30;35.20;1.00
24374;DHT22;12498;50.880;12.096;2023-06-22T14:59:55;35.30;1.00
24374;DHT22;12498;50.880;12.096;2023-06-22T15:02:21;35.30;1.00
24374;DHT22;12498;50.880;12.096;2023-06-22T15:04:46;34.90;1.00
24374;DHT22;12498;50.880;12.096;2023-06-22T15:07:12;34.40;1.00
24374;DHT22;12498;50.880;12.096;2023-06-22T15:09:37;34.30;1.00
24374;DHT22;12498;50.880;12.096;2023-06-22T15:12:06;34.20;1.00
24374;DHT22;12498;50.880;12.096;2023-06-22T15:14:42;34.00;1.00
24374;DHT22;12498;50.880;12.096;2023-06-22T15:17:08;33.90;1.00
24374;DHT22;12498;50.880;12.096;2023-06-22T15:19:34;33.70;1.00
24374;DHT22;12498;50.880;12.096;2023-06-22T15:22:01;33.70;1.00
24374;DHT22;12498;50.880;12.096;2023-06-22T15:24:26;34.00;1.00
24374;DHT22;12498;50.880;12.096;2023-06-22T15:26:52;34.20;1.00
24374;DHT22;12498;50.880;12.096;2023-06-22T15:29:17;34.10;1.00
24374;DHT22;12498;50.880;12.096;2023-06-22T15:31:43;34.00;1.00
24374;DHT22;12498;50.880;12.096;2023-06-22T15:34:08;33.50;1.00